Time;durP1;ratioP1;P1;durP2;ratioP2;P2;SDS_P1;SDS_P2;PMS_P1;PMS_P2;Temp;Humidity;BMP_temperature;BMP_pressure;BME280_temperature;BME280_humidity;BME280_pressure;Samples;Min_cycle;Max_cycle;Signal;HPM_P1;HPM_P2
2024/02/13 00:00:46;;;;;;;1.80;1.70;;;5.10;99.90;;;;;;5086090;28;20211;-82
2024/02/13 00:03:14;;;;;;;1.40;1.40;;;5.20;99.90;;;;;;5089063;28;20266;-82
2024/02/13 00:05:43;;;;;;;1.67;1.58;;;5.10;99.90;;;;;;5084357;28;20194;-82
2024/02/13 00:08:10;;;;;;;2.10;2.00;;;5.20;99.90;;;;;;5097037;28;20226;-82
2024/02/13 00:10:38;;;;;;;1.08;0.98;;;5.30;99.90;;;;;;5067309;28;20235;-82
2024/02/13 00:13:05;;;;;;;4.82;4.10;;;5.50;99.90;;;;;;5088670;28;20194;-82
2024/02/13 00:15:32;;;;;;;2.38;2.28;;;5.50;99.90;;;;;;5083553;28;20207;-82
2024/02/13 00:18:00;;;;;;;7.07;2.00;;;5.50;99.90;;;;;;5085315;28;20483;-82
2024/02/13 00:20:27;;;;;;;1.67;1.58;;;5.40;99.90;;;;;;5078487;28;20211;-82
2024/02/13 00:22:55;;;;;;;1.50;1.40;;;5.40;99.90;;;;;;5083659;28;20206;-84
2024/02/13 00:25:22;;;;;;;0.95;0.95;;;5.40;99.90;;;;;;5080554;28;20297;-83
2024/02/13 00:27:49;;;;;;;1.65;1.55;;;5.50;99.90;;;;;;5081967;28;20213;-82
2024/02/13 00:30:16;;;;;;;2.03;1.95;;;5.20;99.90;;;;;;5081143;28;20563;-82
2024/02/13 00:32:43;;;;;;;0.50;0.50;;;5.20;99.90;;;;;;5086395;28;20206;-81
2024/02/13 00:35:10;;;;;;;2.20;2.05;;;5.30;99.90;;;;;;5091472;28;20209;-83
2024/02/13 00:37:37;;;;;;;1.60;1.50;;;5.60;99.90;;;;;;5085933;28;20262;-82
2024/02/13 00:40:09;;;;;;;1.05;1.05;;;5.40;99.90;;;;;;5088017;28;20767;-83
2024/02/13 00:42:36;;;;;;;9.57;2.22;;;5.50;99.90;;;;;;5088613;28;20195;-82
2024/02/13 00:45:07;;;;;;;1.20;1.20;;;5.50;99.90;;;;;;5069643;28;20198;-82
2024/02/13 00:47:34;;;;;;;2.85;2.25;;;5.60;99.90;;;;;;5088485;28;20270;-83
2024/02/13 00:50:02;;;;;;;1.05;1.05;;;5.30;99.90;;;;;;5086948;28;20289;-82
2024/02/13 00:52:29;;;;;;;3.42;3.25;;;5.30;99.90;;;;;;5090175;28;20261;-83
2024/02/13 00:54:58;;;;;;;3.05;1.88;;;5.30;99.90;;;;;;5074690;28;20238;-82
2024/02/13 00:57:25;;;;;;;1.02;1.02;;;5.20;99.90;;;;;;5080575;28;20754;-83
2024/02/13 00:59:52;;;;;;;1.08;1.08;;;5.20;99.90;;;;;;5080681;28;20203;-82
2024/02/13 01:02:20;;;;;;;1.73;1.27;;;5.00;99.90;;;;;;5071932;28;20206;-82
2024/02/13 01:04:48;;;;;;;2.67;2.47;;;4.90;99.90;;;;;;5075851;28;20214;-84
2024/02/13 01:07:17;;;;;;;2.10;1.92;;;4.80;99.90;;;;;;5087360;28;20570;-81
2024/02/13 01:09:44;;;;;;;1.92;1.83;;;4.90;99.90;;;;;;5091903;28;20202;-82
2024/02/13 01:12:11;;;;;;;4.75;4.38;;;4.90;99.90;;;;;;5087852;28;20242;-82
2024/02/13 01:14:38;;;;;;;3.10;2.90;;;4.90;99.90;;;;;;5080273;28;20244;-82
2024/02/13 01:17:06;;;;;;;0.90;0.90;;;4.80;99.90;;;;;;5087925;28;20282;-81
2024/02/13 01:19:33;;;;;;;2.60;1.85;;;4.80;99.90;;;;;;5082138;28;20748;-82
2024/02/13 01:22:00;;;;;;;2.88;2.72;;;4.70;99.90;;;;;;5087173;28;20207;-82
2024/02/13 01:24:29;;;;;;;2.75;2.65;;;4.70;99.90;;;;;;5087156;28;20216;-82
2024/02/13 01:26:57;;;;;;;3.00;2.80;;;4.80;99.90;;;;;;5097197;28;20468;-82
2024/02/13 01:29:25;;;;;;;4.25;3.97;;;4.60;99.90;;;;;;5092969;28;20436;-81
2024/02/13 01:31:53;;;;;;;1.58;1.48;;;4.40;99.90;;;;;;5081130;28;20215;-82
2024/02/13 01:34:20;;;;;;;0.90;0.90;;;4.40;99.90;;;;;;5068317;28;20225;-82
2024/02/13 01:36:48;;;;;;;3.70;1.85;;;4.20;99.90;;;;;;5086570;28;20248;-81
2024/02/13 01:39:15;;;;;;;3.60;3.30;;;4.40;99.90;;;;;;5094259;28;20273;-82
2024/02/13 01:41:42;;;;;;;3.33;2.33;;;4.50;99.90;;;;;;5081195;28;20217;-80
2024/02/13 01:44:09;;;;;;;2.88;2.67;;;4.70;99.90;;;;;;5059809;28;20222;-82
2024/02/13 01:46:39;;;;;;;2.42;2.33;;;5.00;99.90;;;;;;5088114;28;20210;-82
2024/02/13 01:49:08;;;;;;;2.05;1.95;;;5.20;99.90;;;;;;5081708;28;20252;-82
2024/02/13 01:51:37;;;;;;;4.90;4.45;;;5.30;99.90;;;;;;5062236;28;20219;-81
2024/02/13 01:54:10;;;;;;;4.93;3.78;;;5.20;99.90;;;;;;5088517;28;20199;-82
2024/02/13 01:56:39;;;;;;;2.38;2.28;;;5.20;99.90;;;;;;5062507;28;20210;-82
2024/02/13 01:59:08;;;;;;;4.00;3.10;;;5.20;99.90;;;;;;5090601;28;20203;-82
2024/02/13 02:01:36;;;;;;;1.55;1.35;;;5.10;99.90;;;;;;5095489;28;20240;-82
2024/02/13 02:04:05;;;;;;;1.52;1.42;;;5.20;99.90;;;;;;5083147;28;20406;-82
2024/02/13 02:06:34;;;;;;;6.07;2.90;;;5.10;99.90;;;;;;5072307;28;20219;-81
2024/02/13 02:09:06;;;;;;;2.40;2.20;;;5.10;99.90;;;;;;5084385;28;20237;-82
2024/02/13 02:11:33;;;;;;;1.33;1.33;;;4.90;99.90;;;;;;5096058;28;20526;-82
2024/02/13 02:14:01;;;;;;;1.02;1.02;;;4.80;99.90;;;;;;5092945;28;20237;-82
2024/02/13 02:16:28;;;;;;;7.63;4.43;;;4.70;99.90;;;;;;5089611;28;20262;-82
2024/02/13 02:18:56;;;;;;;4.18;3.92;;;4.70;99.90;;;;;;5073517;28;20274;-83
2024/02/13 02:21:23;;;;;;;4.05;3.85;;;4.70;99.90;;;;;;5071341;28;20252;-83
2024/02/13 02:23:50;;;;;;;5.05;2.50;;;4.50;99.90;;;;;;5092714;28;20727;-82
2024/02/13 02:26:17;;;;;;;3.47;3.17;;;4.40;99.90;;;;;;5081661;28;20229;-82
2024/02/13 02:28:46;;;;;;;1.63;1.52;;;4.80;99.90;;;;;;5087354;28;20207;-82
2024/02/13 02:31:15;;;;;;;5.53;2.78;;;4.80;99.90;;;;;;5085897;28;20226;-80
2024/02/13 02:33:46;;;;;;;7.03;5.30;;;4.80;99.90;;;;;;5084934;28;20203;-81
2024/02/13 02:36:13;;;;;;;2.50;2.30;;;4.90;99.90;;;;;;5082917;28;20230;-80
2024/02/13 02:38:41;;;;;;;2.95;2.75;;;5.10;99.90;;;;;;5067296;28;20214;-81
2024/02/13 02:41:08;;;;;;;1.73;1.63;;;5.10;99.90;;;;;;5079178;28;20244;-83
2024/02/13 02:43:41;;;;;;;2.67;2.53;;;5.00;99.90;;;;;;5087101;28;20238;-82
2024/02/13 02:46:09;;;;;;;1.55;1.45;;;5.10;99.90;;;;;;5072455;28;20226;-81
2024/02/13 02:48:37;;;;;;;0.80;0.80;;;5.20;99.90;;;;;;5074571;28;20261;-80
2024/02/13 02:51:04;;;;;;;4.22;2.10;;;5.20;99.90;;;;;;5084955;28;20231;-81
2024/02/13 02:53:32;;;;;;;1.95;1.85;;;5.10;99.90;;;;;;5085052;28;20202;-82
2024/02/13 02:55:59;;;;;;;2.83;2.63;;;5.20;99.90;;;;;;5084121;28;20209;-81
2024/02/13 02:58:26;;;;;;;2.65;2.45;;;5.10;99.90;;;;;;5083072;28;20242;-82
2024/02/13 03:00:53;;;;;;;2.45;2.33;;;5.20;99.90;;;;;;5085358;28;20237;-81
2024/02/13 03:03:20;;;;;;;3.22;2.95;;;5.30;99.90;;;;;;5084814;28;20202;-81
2024/02/13 03:05:50;;;;;;;4.30;3.53;;;5.40;99.90;;;;;;5089360;28;20214;-82
2024/02/13 03:08:17;;;;;;;8.88;3.03;;;5.40;99.90;;;;;;5080151;28;20214;-81
2024/02/13 03:10:44;;;;;;;2.88;2.17;;;5.60;99.90;;;;;;5100944;28;20202;-83
2024/02/13 03:13:13;;;;;;;4.63;4.22;;;5.50;99.90;;;;;;5096237;28;20264;-81
2024/02/13 03:15:40;;;;;;;1.15;1.15;;;5.60;99.90;;;;;;5080080;28;20207;-83
2024/02/13 03:18:09;;;;;;;2.95;2.35;;;5.60;99.90;;;;;;5080965;28;20195;-83
2024/02/13 03:20:36;;;;;;;4.60;4.35;;;5.50;99.90;;;;;;5079306;28;20218;-83
2024/02/13 03:23:04;;;;;;;2.17;2.10;;;5.50;99.90;;;;;;5065902;28;20207;-82
2024/02/13 03:25:30;;;;;;;2.00;1.90;;;5.40;99.90;;;;;;5078385;28;20275;-82
2024/02/13 03:27:58;;;;;;;2.05;1.95;;;5.20;99.90;;;;;;5085919;28;20290;-83
2024/02/13 03:30:25;;;;;;;1.95;1.85;;;5.10;99.90;;;;;;5097994;28;20234;-83
2024/02/13 03:32:53;;;;;;;1.40;1.30;;;4.90;99.90;;;;;;5076379;28;20299;-82
2024/02/13 03:35:21;;;;;;;3.10;2.90;;;4.90;99.90;;;;;;5070041;28;20506;-82
2024/02/13 03:37:48;;;;;;;3.70;3.42;;;5.10;99.90;;;;;;5073439;28;20268;-84
2024/02/13 03:40:16;;;;;;;4.55;4.13;;;5.10;99.90;;;;;;5105200;28;20201;-82
2024/02/13 03:42:44;;;;;;;3.00;2.55;;;5.20;99.90;;;;;;5106802;28;20187;-83
2024/02/13 03:45:12;;;;;;;4.25;3.97;;;5.20;99.90;;;;;;5100718;28;20195;-83
2024/02/13 03:47:39;;;;;;;0.70;0.70;;;5.20;99.90;;;;;;5089442;28;20502;-82
2024/02/13 03:50:07;;;;;;;1.05;1.05;;;5.10;99.90;;;;;;5085786;28;20207;-83
2024/02/13 03:52:36;;;;;;;4.00;1.88;;;5.10;99.90;;;;;;5085711;28;20226;-82
2024/02/13 03:55:05;;;;;;;4.75;2.03;;;5.20;99.90;;;;;;5074308;28;20214;-81
2024/02/13 03:57:33;;;;;;;9.93;3.05;;;5.30;99.90;;;;;;5051064;28;20200;-82
2024/02/13 04:00:00;;;;;;;4.57;3.28;;;5.30;99.90;;;;;;5088138;28;20233;-82
2024/02/13 04:02:28;;;;;;;2.25;2.15;;;5.30;99.90;;;;;;5109949;28;20213;-81
2024/02/13 04:04:55;;;;;;;1.65;1.58;;;5.30;99.90;;;;;;5101362;28;20199;-83
2024/02/13 04:07:23;;;;;;;0.60;0.60;;;5.30;99.90;;;;;;5088331;28;20210;-82
2024/02/13 04:09:50;;;;;;;1.40;1.30;;;5.20;99.90;;;;;;5090771;28;20423;-80
2024/02/13 04:12:16;;;;;;;1.77;1.67;;;5.30;99.90;;;;;;5074142;28;20222;-82
2024/02/13 04:14:43;;;;;;;1.05;1.05;;;5.20;99.90;;;;;;5086393;28;20267;-82
2024/02/13 04:17:11;;;;;;;2.45;2.35;;;5.20;99.90;;;;;;5110381;28;20199;-83
2024/02/13 04:19:41;;;;;;;2.55;2.35;;;5.30;99.90;;;;;;5096367;28;20266;-83
2024/02/13 04:22:08;;;;;;;2.45;2.25;;;5.40;99.90;;;;;;5081719;28;20221;-84
2024/02/13 04:24:35;;;;;;;20.02;1.83;;;5.20;99.90;;;;;;5076827;28;20207;-81
2024/02/13 04:27:03;;;;;;;2.63;2.50;;;5.30;99.90;;;;;;5083218;28;20203;-81
2024/02/13 04:29:30;;;;;;;2.08;1.98;;;5.20;99.90;;;;;;5067132;28;20207;-80
2024/02/13 04:31:58;;;;;;;5.53;3.08;;;5.30;99.90;;;;;;5083222;28;20236;-80
2024/02/13 04:34:25;;;;;;;1.75;1.65;;;5.30;99.90;;;;;;5086150;28;20533;-82
2024/02/13 04:36:57;;;;;;;3.25;2.95;;;5.20;99.90;;;;;;5089332;28;20196;-81
2024/02/13 04:39:23;;;;;;;3.55;3.05;;;5.00;99.90;;;;;;5097723;28;20273;-79
2024/02/13 04:41:51;;;;;;;1.30;1.30;;;4.90;99.90;;;;;;5086520;28;20519;-80
2024/02/13 04:44:20;;;;;;;1.58;1.48;;;4.70;99.90;;;;;;5071375;28;20207;-82
2024/02/13 04:46:47;;;;;;;1.77;1.73;;;4.60;99.90;;;;;;5068987;28;20211;-81
2024/02/13 04:49:14;;;;;;;2.13;2.03;;;4.50;99.90;;;;;;5081019;28;20263;-82
2024/02/13 04:51:42;;;;;;;1.08;1.08;;;4.60;99.90;;;;;;5070664;28;20231;-82
2024/02/13 04:54:09;;;;;;;1.63;1.52;;;4.60;99.90;;;;;;5091448;28;20237;-82
2024/02/13 04:56:36;;;;;;;1.10;1.10;;;4.80;99.90;;;;;;5082487;28;20207;-82
2024/02/13 04:59:04;;;;;;;2.97;2.80;;;4.80;99.90;;;;;;5094384;28;20202;-82
2024/02/13 05:01:31;;;;;;;2.15;1.70;;;4.90;99.90;;;;;;5071297;28;20232;-82
2024/02/13 05:09:26;;;;;;;5.03;4.72;;;5.00;99.90;;;;;;5080172;28;20263;-80
2024/02/13 05:11:53;;;;;;;2.75;2.55;;;5.00;99.90;;;;;;5059307;28;20238;-84
2024/02/13 05:14:21;;;;;;;9.00;1.50;;;5.00;99.90;;;;;;5082591;28;20261;-83
2024/02/13 05:16:48;;;;;;;1.73;1.63;;;4.90;99.90;;;;;;5074985;28;20207;-82
2024/02/13 05:19:17;;;;;;;2.08;1.98;;;4.90;99.90;;;;;;5089000;28;20236;-82
2024/02/13 05:21:44;;;;;;;2.80;2.67;;;4.80;99.90;;;;;;5084802;28;20513;-83
2024/02/13 05:24:11;;;;;;;3.45;3.25;;;5.00;99.90;;;;;;5086089;28;20207;-81
2024/02/13 05:26:38;;;;;;;9.15;4.38;;;4.90;99.90;;;;;;5095213;28;20238;-80
2024/02/13 05:29:05;;;;;;;1.38;1.38;;;4.90;99.90;;;;;;5109929;28;20217;-83
2024/02/13 05:31:33;;;;;;;1.63;1.52;;;4.90;99.90;;;;;;5092956;28;20241;-82
2024/02/13 05:34:00;;;;;;;4.88;4.47;;;5.00;99.90;;;;;;5090820;28;20222;-81
2024/02/13 05:36:29;;;;;;;2.60;2.50;;;5.10;99.90;;;;;;5076174;28;20198;-81
2024/02/13 05:38:57;;;;;;;3.30;3.03;;;5.10;99.90;;;;;;5098445;28;20224;-82
2024/02/13 05:41:24;;;;;;;0.85;0.85;;;5.10;99.90;;;;;;5074806;28;20310;-83
2024/02/13 05:43:52;;;;;;;3.40;3.13;;;5.20;99.90;;;;;;5076806;28;20212;-83
2024/02/13 05:46:20;;;;;;;3.35;3.17;;;5.00;99.90;;;;;;5082775;28;20252;-82
2024/02/13 05:48:49;;;;;;;1.45;1.45;;;5.10;99.90;;;;;;5070083;28;20220;-84
2024/02/13 05:51:16;;;;;;;4.10;3.90;;;5.10;99.90;;;;;;5051853;28;20271;-82
2024/02/13 05:53:43;;;;;;;3.13;2.55;;;5.10;99.90;;;;;;5075695;28;20234;-83
2024/02/13 05:56:12;;;;;;;2.17;2.08;;;5.20;99.90;;;;;;5084405;28;20205;-83
2024/02/13 05:58:46;;;;;;;3.13;2.92;;;5.00;99.90;;;;;;5084368;28;20548;-82
2024/02/13 06:01:13;;;;;;;0.93;0.93;;;4.90;99.90;;;;;;5090808;28;20409;-81
2024/02/13 06:03:40;;;;;;;1.05;1.05;;;5.00;99.90;;;;;;5079437;28;20242;-81
2024/02/13 06:06:09;;;;;;;1.65;1.55;;;5.10;99.90;;;;;;5075812;28;20202;-83
2024/02/13 06:08:36;;;;;;;1.52;1.50;;;5.00;99.90;;;;;;5075198;28;20230;-81
2024/02/13 06:11:04;;;;;;;3.80;3.60;;;5.00;99.90;;;;;;5080653;28;20313;-83
2024/02/13 06:13:33;;;;;;;1.85;1.75;;;4.90;99.90;;;;;;5083687;28;20228;-82
2024/02/13 06:16:00;;;;;;;3.75;3.55;;;4.90;99.90;;;;;;5086461;28;20261;-82
2024/02/13 06:18:28;;;;;;;3.28;3.08;;;5.10;99.90;;;;;;5079796;28;20206;-81
2024/02/13 06:20:55;;;;;;;0.70;0.70;;;5.20;99.90;;;;;;5098075;28;20213;-82
2024/02/13 06:23:22;;;;;;;4.43;4.13;;;5.10;99.90;;;;;;5099520;28;20228;-79
2024/02/13 06:25:49;;;;;;;17.05;3.85;;;5.10;99.90;;;;;;5081656;28;20211;-85
2024/02/13 06:28:16;;;;;;;0.88;0.88;;;5.10;99.90;;;;;;5088916;28;20211;-83
2024/02/13 06:30:46;;;;;;;2.00;1.90;;;5.10;99.90;;;;;;5090606;28;20203;-83
2024/02/13 06:33:13;;;;;;;2.38;2.28;;;4.90;99.90;;;;;;5091697;28;20222;-82
2024/02/13 06:35:41;;;;;;;1.35;1.25;;;4.90;99.90;;;;;;5097425;28;20483;-85
2024/02/13 06:38:08;;;;;;;8.05;3.95;;;4.80;99.90;;;;;;5076393;28;20245;-83
2024/02/13 06:40:35;;;;;;;2.15;2.05;;;4.80;99.90;;;;;;5088342;28;20222;-82
2024/02/13 06:43:03;;;;;;;2.03;1.92;;;4.70;99.90;;;;;;5081640;28;20253;-83
2024/02/13 06:45:30;;;;;;;2.25;2.15;;;4.70;99.90;;;;;;5083765;28;20215;-82
2024/02/13 06:47:58;;;;;;;3.75;2.80;;;4.70;99.90;;;;;;5070409;28;20204;-82
2024/02/13 06:50:25;;;;;;;4.38;4.07;;;4.70;99.90;;;;;;5098512;28;20577;-83
2024/02/13 06:52:55;;;;;;;6.72;3.08;;;4.70;99.90;;;;;;5081368;28;20538;-84
2024/02/13 06:55:23;;;;;;;1.33;1.33;;;4.60;99.90;;;;;;5058945;28;20239;-83
2024/02/13 06:57:50;;;;;;;2.00;1.90;;;4.70;99.90;;;;;;5077285;28;20458;-84
2024/02/13 07:00:19;;;;;;;5.40;4.75;;;4.80;99.90;;;;;;5059559;28;20260;-83
2024/02/13 07:02:49;;;;;;;2.58;2.47;;;4.80;99.90;;;;;;5081629;28;20251;-82
2024/02/13 07:05:16;;;;;;;3.22;3.03;;;4.90;99.90;;;;;;5077319;28;20474;-82
2024/02/13 07:07:46;;;;;;;1.90;1.80;;;4.90;99.90;;;;;;5087833;28;20460;-83
2024/02/13 07:10:15;;;;;;;3.65;3.40;;;5.10;99.90;;;;;;5094103;28;20203;-82
2024/02/13 07:12:43;;;;;;;2.90;2.78;;;5.10;99.90;;;;;;5075258;28;20227;-82
2024/02/13 07:15:11;;;;;;;2.72;2.63;;;5.20;99.90;;;;;;5083218;28;20201;-81
2024/02/13 07:17:39;;;;;;;2.80;2.70;;;5.40;99.90;;;;;;5082984;28;20487;-82
2024/02/13 07:20:10;;;;;;;2.83;1.73;;;5.40;99.90;;;;;;5087710;28;20209;-82
2024/02/13 07:22:39;;;;;;;2.15;2.05;;;5.40;99.90;;;;;;5085110;28;20199;-82
2024/02/13 07:25:08;;;;;;;0.75;0.75;;;5.40;99.90;;;;;;5097240;28;20396;-82
2024/02/13 07:27:37;;;;;;;2.17;2.08;;;5.40;99.90;;;;;;5094464;28;20229;-83
2024/02/13 07:30:08;;;;;;;7.60;4.43;;;5.40;99.90;;;;;;5074486;28;20207;-84
2024/02/13 07:32:36;;;;;;;1.58;1.48;;;5.50;99.90;;;;;;5091549;28;20526;-82
2024/02/13 07:35:04;;;;;;;1.63;1.52;;;5.50;99.90;;;;;;5090474;28;20222;-82
2024/02/13 07:37:31;;;;;;;1.45;1.35;;;5.50;99.90;;;;;;5094361;28;20199;-84
2024/02/13 07:40:00;;;;;;;3.50;3.20;;;5.60;99.90;;;;;;5073560;28;20270;-83
2024/02/13 07:42:28;;;;;;;1.38;1.38;;;5.60;99.90;;;;;;5088537;28;20206;-81
2024/02/13 07:44:56;;;;;;;4.65;4.35;;;5.60;99.90;;;;;;5089124;28;20373;-82
2024/02/13 07:47:25;;;;;;;6.78;4.53;;;5.60;99.90;;;;;;5084342;28;20271;-82
2024/02/13 07:49:54;;;;;;;2.42;2.30;;;5.60;99.90;;;;;;5090339;28;20447;-82
2024/02/13 07:52:22;;;;;;;8.02;4.10;;;5.70;99.90;;;;;;5087426;28;20227;-82
2024/02/13 07:54:50;;;;;;;4.35;3.97;;;5.60;99.90;;;;;;5085435;28;20203;-81
2024/02/13 07:57:18;;;;;;;4.60;4.22;;;5.70;99.90;;;;;;5098031;28;20199;-80
2024/02/13 07:59:46;;;;;;;4.85;4.10;;;5.70;99.90;;;;;;5098576;28;20217;-81
2024/02/13 08:02:14;;;;;;;3.88;3.67;;;5.60;99.90;;;;;;5103044;28;20213;-81
2024/02/13 08:04:42;;;;;;;3.45;3.22;;;5.70;99.90;;;;;;5086330;28;20195;-82
2024/02/13 08:07:09;;;;;;;4.45;3.05;;;5.50;99.90;;;;;;5091499;28;20198;-80
2024/02/13 08:09:36;;;;;;;3.30;3.10;;;5.50;99.90;;;;;;5073360;28;20196;-82
2024/02/13 08:12:06;;;;;;;4.10;3.85;;;5.60;99.90;;;;;;5079397;28;20207;-81
2024/02/13 08:14:34;;;;;;;3.15;2.95;;;5.60;99.90;;;;;;5088215;28;20241;-81
2024/02/13 08:17:08;;;;;;;3.92;3.72;;;5.60;99.90;;;;;;5082613;28;20214;-83
2024/02/13 08:19:40;;;;;;;2.03;1.92;;;5.70;99.90;;;;;;5084791;28;20203;-80
2024/02/13 08:22:08;;;;;;;4.05;2.33;;;5.70;99.90;;;;;;5094759;28;20227;-82
2024/02/13 08:24:35;;;;;;;3.95;3.75;;;5.80;99.90;;;;;;5086932;28;20523;-82
2024/02/13 08:27:05;;;;;;;0.98;0.98;;;5.90;99.90;;;;;;5092309;28;20328;-82
2024/02/13 08:29:33;;;;;;;1.50;1.40;;;5.90;99.90;;;;;;5073909;28;20525;-82
2024/02/13 08:32:03;;;;;;;1.70;1.13;;;6.00;99.90;;;;;;5100203;28;20186;-83
2024/02/13 08:34:30;;;;;;;3.28;3.17;;;5.90;99.90;;;;;;5095869;28;20218;-83
2024/02/13 08:36:58;;;;;;;2.08;1.98;;;5.90;99.90;;;;;;5095714;28;20211;-84
2024/02/13 08:39:25;;;;;;;1.58;1.48;;;5.80;99.90;;;;;;5089519;28;20483;-83
2024/02/13 08:41:53;;;;;;;3.20;3.03;;;5.80;99.90;;;;;;5089391;28;20203;-83
2024/02/13 08:44:21;;;;;;;8.77;5.30;;;5.80;99.90;;;;;;5074667;28;20231;-82
2024/02/13 08:46:49;;;;;;;1.42;1.40;;;5.80;99.90;;;;;;5082550;28;20387;-81
2024/02/13 08:49:16;;;;;;;2.45;2.25;;;5.80;99.90;;;;;;5080968;28;20277;-82
2024/02/13 08:51:44;;;;;;;2.45;1.63;;;5.90;99.90;;;;;;5096151;28;20218;-82
2024/02/13 08:54:12;;;;;;;3.25;3.13;;;6.00;99.90;;;;;;5093599;28;20453;-83
2024/02/13 08:56:40;;;;;;;1.73;1.63;;;5.90;99.90;;;;;;5094661;28;20182;-83
2024/02/13 08:59:10;;;;;;;2.88;2.67;;;6.00;99.90;;;;;;5090348;28;20525;-81
2024/02/13 09:01:37;;;;;;;2.35;2.15;;;6.00;99.90;;;;;;5095548;28;20203;-84
2024/02/13 09:04:04;;;;;;;2.97;2.78;;;6.10;99.90;;;;;;5090107;28;20243;-81
2024/02/13 09:06:33;;;;;;;6.22;4.63;;;6.00;99.90;;;;;;5063319;28;20195;-82
2024/02/13 09:09:01;;;;;;;1.90;1.80;;;6.00;99.90;;;;;;5070427;28;20222;-83
2024/02/13 09:11:31;;;;;;;3.70;1.95;;;5.90;99.90;;;;;;5068328;28;20203;-84
2024/02/13 09:13:59;;;;;;;2.50;2.33;;;5.90;99.90;;;;;;5091255;28;20358;-81
2024/02/13 09:16:26;;;;;;;3.50;1.77;;;5.90;99.90;;;;;;5075952;28;20241;-82
2024/02/13 09:18:54;;;;;;;0.80;0.80;;;6.00;99.90;;;;;;5098712;28;20214;-83
2024/02/13 09:21:24;;;;;;;1.60;1.50;;;6.10;99.90;;;;;;5093454;28;20260;-83
2024/02/13 09:23:51;;;;;;;7.82;2.97;;;6.10;99.90;;;;;;5080601;28;20491;-83
2024/02/13 09:26:19;;;;;;;2.05;1.83;;;6.00;99.90;;;;;;5086483;28;20207;-83
2024/02/13 09:28:47;;;;;;;6.25;1.60;;;6.00;99.90;;;;;;5086798;28;20281;-83
2024/02/13 09:31:17;;;;;;;5.60;4.25;;;6.10;99.90;;;;;;5084312;28;20396;-83
2024/02/13 09:33:45;;;;;;;3.80;2.22;;;6.00;99.90;;;;;;5064440;28;20550;-82
2024/02/13 09:36:14;;;;;;;19.15;1.80;;;6.10;99.90;;;;;;5090546;28;20269;-84
2024/02/13 09:38:42;;;;;;;2.45;2.25;;;6.10;99.90;;;;;;5082552;28;20263;-81
2024/02/13 09:41:12;;;;;;;2.40;2.25;;;6.10;99.90;;;;;;5094967;28;20211;-83
2024/02/13 09:43:42;;;;;;;3.67;2.05;;;6.10;99.90;;;;;;5083165;28;20200;-82
2024/02/13 09:46:16;;;;;;;1.45;1.33;;;6.10;99.90;;;;;;5077729;28;20387;-83
2024/02/13 09:48:47;;;;;;;4.40;4.00;;;6.10;99.90;;;;;;5080580;28;20207;-83
2024/02/13 09:51:18;;;;;;;0.98;0.98;;;6.30;99.90;;;;;;5077732;28;20503;-83
2024/02/13 09:53:50;;;;;;;3.58;2.67;;;6.20;99.90;;;;;;5060228;28;20260;-84
2024/02/13 09:56:18;;;;;;;1.75;1.65;;;6.10;99.90;;;;;;5086228;28;20209;-83
2024/02/13 09:58:48;;;;;;;1.15;1.15;;;6.10;99.90;;;;;;5073573;28;20195;-82
2024/02/13 10:01:15;;;;;;;2.78;2.67;;;6.10;99.90;;;;;;5081448;28;20559;-83
2024/02/13 10:03:43;;;;;;;1.80;1.70;;;6.10;99.90;;;;;;5087354;28;20206;-81
2024/02/13 10:06:11;;;;;;;1.13;1.10;;;6.20;99.90;;;;;;5083553;28;20475;-83
2024/02/13 10:08:39;;;;;;;1.55;1.45;;;6.10;99.90;;;;;;5082233;28;20195;-82
2024/02/13 10:11:15;;;;;;;2.25;1.38;;;6.20;99.90;;;;;;5083330;28;20506;-82
2024/02/13 10:13:42;;;;;;;2.72;2.53;;;6.20;99.90;;;;;;5066921;28;20294;-80
2024/02/13 10:16:18;;;;;;;1.20;1.20;;;6.50;99.90;;;;;;5081284;28;20205;-81
2024/02/13 10:18:53;;;;;;;2.00;1.90;;;6.40;99.90;;;;;;5093687;28;20199;-83
2024/02/13 10:21:27;;;;;;;1.17;1.17;;;6.60;99.90;;;;;;5052554;28;20271;-81
2024/02/13 10:24:12;;;;;;;0.70;0.70;;;6.70;99.90;;;;;;5091503;28;20216;-80
2024/02/13 10:26:40;;;;;;;0.93;0.93;;;6.80;99.90;;;;;;5081711;28;20289;-82
2024/02/13 10:29:08;;;;;;;3.30;1.70;;;6.60;99.90;;;;;;5098952;28;20229;-82
2024/02/13 10:31:36;;;;;;;2.72;2.13;;;6.80;99.90;;;;;;5090334;28;20499;-82
2024/02/13 10:34:08;;;;;;;1.25;1.25;;;7.10;99.90;;;;;;5099600;28;20223;-82
2024/02/13 10:36:36;;;;;;;1.73;1.70;;;7.20;99.90;;;;;;5091662;28;20229;-81
2024/02/13 10:39:08;;;;;;;0.70;0.70;;;7.20;99.90;;;;;;5083429;28;20203;-82
2024/02/13 10:41:40;;;;;;;0.93;0.93;;;7.00;99.90;;;;;;5090271;28;20198;-80
2024/02/13 10:44:13;;;;;;;1.60;1.50;;;7.10;99.90;;;;;;5070421;28;20199;-81
2024/02/13 10:46:42;;;;;;;3.08;2.67;;;7.00;99.90;;;;;;5073588;28;20203;-80
2024/02/13 10:49:29;;;;;;;9.07;1.73;;;6.80;99.90;;;;;;5084384;28;20292;-84
2024/02/13 10:51:59;;;;;;;0.50;0.50;;;6.70;99.90;;;;;;5075042;28;20222;-83
2024/02/13 10:54:28;;;;;;;0.80;0.80;;;6.40;99.90;;;;;;5070969;28;20224;-80
2024/02/13 10:56:58;;;;;;;0.50;0.50;;;6.50;99.90;;;;;;5091222;28;20238;-82
2024/02/13 10:59:28;;;;;;;0.98;0.98;;;6.40;99.90;;;;;;5090148;28;20197;-83
2024/02/13 11:01:59;;;;;;;0.50;0.50;;;6.40;99.90;;;;;;5091122;28;20549;-82
2024/02/13 11:04:30;;;;;;;0.63;0.63;;;6.40;99.90;;;;;;5079676;28;20221;-82
2024/02/13 11:06:58;;;;;;;1.15;1.15;;;6.40;99.90;;;;;;5075577;28;20198;-83
2024/02/13 11:09:25;;;;;;;0.85;0.85;;;6.40;99.90;;;;;;5080029;28;20211;-81
2024/02/13 11:11:54;;;;;;;0.50;0.50;;;6.40;99.90;;;;;;5089770;28;20339;-82
2024/02/13 11:14:24;;;;;;;1.15;1.15;;;6.40;99.90;;;;;;5092217;28;20222;-82
2024/02/13 11:16:59;;;;;;;0.98;0.98;;;6.40;99.90;;;;;;5083991;28;20205;-83
2024/02/13 11:19:40;;;;;;;0.50;0.50;;;6.40;99.90;;;;;;5082985;28;20206;-82
2024/02/13 11:22:14;;;;;;;0.82;0.75;;;6.50;99.90;;;;;;5071830;28;20207;-82
2024/02/13 11:24:53;;;;;;;0.60;0.60;;;6.60;99.90;;;;;;5089748;28;20222;-81
2024/02/13 11:27:25;;;;;;;0.75;0.75;;;6.70;99.90;;;;;;5078893;28;20486;-81
2024/02/13 11:29:58;;;;;;;0.60;0.60;;;6.80;99.90;;;;;;5088420;28;20564;-83
2024/02/13 11:32:31;;;;;;;0.77;0.77;;;6.90;99.90;;;;;;5072074;28;20476;-78
2024/02/13 11:34:59;;;;;;;1.77;1.65;;;7.10;99.90;;;;;;5096433;28;20316;-83
2024/02/13 11:37:27;;;;;;;1.83;1.73;;;7.20;99.90;;;;;;5094348;28;20377;-85
2024/02/13 11:39:58;;;;;;;0.50;0.50;;;7.40;99.90;;;;;;5076127;28;20229;-82
2024/02/13 11:42:34;;;;;;;0.95;0.95;;;7.40;99.90;;;;;;5094243;28;20199;-83
2024/02/13 11:45:03;;;;;;;0.60;0.60;;;7.50;99.90;;;;;;5068967;28;20210;-82
2024/02/13 11:47:32;;;;;;;0.60;0.60;;;7.50;99.90;;;;;;5096371;28;20249;-85
2024/02/13 11:50:00;;;;;;;0.60;0.60;;;7.60;99.90;;;;;;5082703;28;20213;-84
2024/02/13 11:52:27;;;;;;;0.73;0.73;;;7.40;99.90;;;;;;5090832;28;20228;-81
2024/02/13 11:54:55;;;;;;;0.57;0.57;;;7.50;99.90;;;;;;5065224;28;20254;-84
2024/02/13 11:57:26;;;;;;;0.80;0.80;;;7.30;99.90;;;;;;5085138;28;20515;-83
2024/02/13 11:59:57;;;;;;;1.38;1.27;;;7.20;99.90;;;;;;5100061;28;20207;-82
2024/02/13 12:02:27;;;;;;;0.93;0.93;;;7.20;99.90;;;;;;5082061;28;20272;-84
2024/02/13 12:04:55;;;;;;;0.80;0.80;;;7.10;99.90;;;;;;5079916;28;20198;-81
2024/02/13 12:07:23;;;;;;;0.60;0.60;;;7.20;99.90;;;;;;5084756;28;20203;-83
2024/02/13 12:09:52;;;;;;;1.92;1.83;;;7.30;99.90;;;;;;5067588;28;20202;-81
2024/02/13 12:12:20;;;;;;;0.60;0.60;;;7.10;99.90;;;;;;5083101;28;20207;-83
2024/02/13 12:14:49;;;;;;;0.60;0.60;;;7.20;99.90;;;;;;5081657;28;20219;-85
2024/02/13 12:17:20;;;;;;;0.60;0.60;;;7.10;99.90;;;;;;5095216;28;20502;-82
2024/02/13 12:19:50;;;;;;;1.48;1.45;;;7.00;99.90;;;;;;5073519;28;20574;-82
2024/02/13 12:22:18;;;;;;;0.73;0.73;;;7.20;99.90;;;;;;5070536;28;20242;-82
2024/02/13 12:24:46;;;;;;;0.43;0.43;;;7.20;99.90;;;;;;5082234;28;20508;-81
2024/02/13 12:27:15;;;;;;;0.60;0.60;;;7.20;99.90;;;;;;5097131;28;20719;-84
2024/02/13 12:29:43;;;;;;;0.50;0.50;;;7.20;99.90;;;;;;5082516;28;20214;-84
2024/02/13 12:32:20;;;;;;;0.50;0.50;;;7.10;99.90;;;;;;5079037;28;20235;-80
2024/02/13 12:34:48;;;;;;;1.40;1.35;;;7.10;99.90;;;;;;5064019;28;20226;-82
2024/02/13 12:37:18;;;;;;;0.95;0.95;;;7.20;99.90;;;;;;5064476;28;20221;-84
2024/02/13 12:39:46;;;;;;;0.50;0.50;;;7.10;99.90;;;;;;5092026;28;20205;-82
2024/02/13 12:42:16;;;;;;;0.50;0.50;;;7.10;99.90;;;;;;5084331;28;20211;-85
2024/02/13 12:44:44;;;;;;;1.15;1.15;;;7.00;99.90;;;;;;5081835;28;20199;-83
2024/02/13 12:47:17;;;;;;;0.50;0.50;;;7.00;99.90;;;;;;5057851;28;20509;-82
2024/02/13 12:49:44;;;;;;;0.85;0.85;;;7.10;99.90;;;;;;5093071;28;20287;-84
2024/02/13 12:52:16;;;;;;;0.73;0.73;;;7.30;99.90;;;;;;5064620;28;20195;-84
2024/02/13 12:54:47;;;;;;;0.60;0.60;;;7.10;99.90;;;;;;5089571;28;20265;-83
2024/02/13 12:57:14;;;;;;;0.60;0.60;;;7.10;99.90;;;;;;5083390;28;20210;-82
2024/02/13 12:59:43;;;;;;;6.22;1.73;;;7.20;99.90;;;;;;5083399;28;20444;-81
2024/02/13 13:02:13;;;;;;;0.50;0.50;;;7.50;99.90;;;;;;5081359;28;20197;-84
2024/02/13 13:04:41;;;;;;;1.60;1.50;;;7.50;99.90;;;;;;5088454;28;20211;-83
2024/02/13 13:07:09;;;;;;;0.50;0.50;;;7.70;99.90;;;;;;5076020;28;20235;-82
2024/02/13 13:09:39;;;;;;;0.50;0.50;;;7.70;99.90;;;;;;5082353;28;20434;-81